Orick, CA (95555)

10:43 PM PST on January 23, 2017 (GMT -0800)
Redwood Valley | | Change Station
Active Advisory: Hazardous Seas Warning

Elev 600 ft 41.04 °N, 123.88 °W | Updated 7 minutes ago

Partly Cloudy
Partly Cloudy
38.5 °F
Feels Like 38 °F
N
0.0
Wind Variable Wind from SSE
Gusts 0.0 mph

Today
High -- | Low -- °F
--% Chance of Precip.
Yesterday
High -- | Low -- °F
Precip. -- in
Pressure 29.87 in
Visibility 9.0 miles
Clouds Clear
Windchill 38 °F
Dew Point 39 °F
Humidity 100%
Rainfall 0.14 in
Snow Depth Not available.
7:34 AM 5:21 PM
Waning Crescent, 13% visible
METAR KACV 240553Z AUTO 04003KT 9SM CLR 04/03 A2984 RMK AO2 SLP113 60000 T00390033 10094 20039 53025
Pressure 29.87 in
Visibility 9.0 miles
Clouds Clear
Windchill 38 °F
Dew Point 39 °F
Humidity 100%
Rainfall 0.14 in
Snow Depth Not available.
7:34 AM 5:21 PM
Waning Crescent, 13% visible
METAR KACV 240553Z AUTO 04003KT 9SM CLR 04/03 A2984 RMK AO2 SLP113 60000 T00390033 10094 20039 53025

Get Your Daily Forecast Email!

Thanks for signing up!

Be on the lookout for a verification email in your inbox.

You'll start receiving the daily forecast at 8 AM.

×

10-Day Weather Forecast

Almanac

Astronomy

Jan. 23, 2017 Rise Set
Actual Time
Civil Twilight
Nautical Twilight
Astronomical Twilight
Moon
Length of Visible Light
Length of Day
Tomorrow will be .
, % of the Moon is Illuminated

Today's Extremes

State Highs State Lows

Community

WunderPhotos

Upload Photos

1,962,540 photos uploaded!

WunderBlog® & News

Nearby

Air Quality

  Air Quality AQ Index Pollutant
Not available.

Snow Depth

Station Depth Elevation

Earthquake Activity

City Distance Mag. Time & Date
Minimum magnitude displayed is 2.5.

Coastal Water Temperatures

Place Temperature

Stations

Nearby Weather Stations

Station Location Temp. Windchill Dew Point Humidity Wind Precip. Elev Updated Type
                   

Watches & Warnings

Hazardous Seas Warning
Issued: 9:04 PM PST Jan. 23, 2017 – National Weather Service

... Hazardous seas warning remains in effect until 4 am Tuesday...

* winds... NE to E 10 to 20 kt. Gusts to 30 kt well offshore N of
Cape Mendocino this evening. Winds will subside overnight.

* Waves... W swell 18 to 20 feet with wave periods of around 15
seconds. Swell subsiding Tuesday. Another W swell train
building Wednesday.

Precautionary/preparedness actions...

A hazardous seas warning means hazardous sea conditions are
imminent or occurring. Recreational boaters should remain in
port... or take shelter until waves subside. Commercial vessels
should prepare for rough seas and consider remaining in port or
taking shelter in port until hazardous seas subside.